Terminal Aerodrome Forecast
Issued by NWS

Home | Current Version | Previous Version | Text Only | Print | Product List | Glossary Off
Versions: 1 2 3 4 5 6 7 8 9 10 11 12

000
FTUS43 KGRB 151130
TAFAUW
TAF
KAUW 151130Z 1512/1612 33020G30KT 6SM -RA OVC012
      TEMPO 1512/1514 4SM -SHRA BKN008
     FM151400 32014G22KT P6SM OVC020
     FM151800 30011G17KT P6SM BKN035
     FM152200 27006KT P6SM SCT040 BKN120
     FM161000 25003KT P6SM SKC=

USA.gov is the U.S. government's official web portal to all federal, state and local government web resources and services.